Dakin Peak, Santa Catalina Island Weather observations

Data are for 10 minute period ending at time listed.
 Day   Time   Solar   Ave.   Ave.  Ave.  Vector    Max.   Stn.    Total
  of    of     Rad.   Air    Rel.  Wind   Wind     Wind   Baro.  Precip.
Year   Day            Temp.  Hum.  Speed  Dir.     Gust   Pres.         
2015   (PST)   W/m2    F      %     mph   deg.      mph    mb.     in.  
------------------------------------------------------------------------
  61    4:40    0.0    47   83.1     9    242.2    10.8    999.0   0.00  
  61    4:50    0.0    47   84.4     9    245.1    10.8    999.0   0.00  
  61    5:00    0.0    47   85.0     9    236.0    11.3    999.0   0.00  
  61    5:10    0.0    47   85.3     9    238.5    11.3    999.0   0.00  
  61    5:20    0.0    46   86.2    10    239.7    11.3    999.0   0.00  
  61    5:30    0.0    47   87.0    10    240.6    11.3    999.0   0.00  
  61    5:40    0.0    46   88.6     9    246.7    10.8    999.0   0.00  
  61    5:50    0.0    47   88.9     9    241.7    10.2    999.0   0.00  
  61    6:00    0.0    47   89.3     8    234.6     9.6    999.0   0.00  
  61    6:10    0.0    46   89.5     5    223.9     7.8    999.0   0.00  
  61    6:20    3.0    46   89.8     8    233.8     9.0    999.0   0.00  
  61    6:30    6.0    47   89.4     4    213.8     6.6    999.0   0.00  
  61    6:40    9.0    47   89.3     3    191.5     4.8    999.0   0.00  
  61    6:50   26.0    47   89.5     4    162.1     6.6    999.0   0.00  
  61    7:00   73.0    48   89.3     3    169.5     7.2    999.0   0.00  
  61    7:10  118.0    51   87.1     2    144.7     5.4    999.0   0.00  
  61    7:20  157.0    52   83.9     4    153.4     6.6    999.0   0.00  
  61    7:30  152.0    52   83.8     4    154.0     6.6    999.0   0.00  
  61    7:40   62.0    50   85.3     4    179.6     8.4    999.0   0.00  
  61    7:50   52.0    49   87.2     3    211.2     6.0    999.0   0.00  
  61    8:00   63.0    48   88.2     5    229.4     7.2    999.0   0.00  
  61    8:10  293.0    50   88.3     4    195.9     6.0    999.0   0.00  
  61    8:20  188.0    52   83.5     4    171.4     7.2    999.0   0.00  
  61    8:30  108.0    50   85.7     7    230.4    13.7    999.0   0.00  
  61    8:40  108.0    49   87.4     8    263.7    10.8    999.0   0.00  
  61    8:50   56.0    49   86.7     8    247.4    13.1    999.0   0.00  
  61    9:00   28.0    48   83.8    10    243.1    13.7    999.0   0.00  
  61    9:10   14.0    48   85.2    12    249.0    16.1    999.0   0.00  
  61    9:20   16.0    48   87.6    12    234.3    16.1    999.0   0.01  
  61    9:30   32.0    46   88.3    10    231.2    20.3    999.0   0.02  
  61    9:40  130.0    47   89.6     5    228.2    10.2    999.0   0.03  
  61    9:50   33.0    47   90.6     6    221.2    11.3    999.0   0.09  
  61   10:00   62.0    47   90.3     7    231.4    14.9    999.0   0.00  
  61   10:10   79.0    47   89.8    13    251.2    20.3    999.0   0.00  
  61   10:20  128.0    47   86.8    10    275.9    17.3    999.0   0.00  
  61   10:30  142.0    47   87.9     8    277.9    11.3    999.0   0.00  
  61   10:40  107.0    47   87.4     7    255.7    10.2    999.0   0.00  
  61   10:50   73.0    47   86.3     8    252.6    10.2    999.0   0.00  
  61   11:00   45.0    47   88.3     5    160.2     7.8    999.0   0.01  
  61   11:10   70.0    46   89.9     6    228.7     9.0    999.0   0.00  
  61   11:20  451.0    48   91.3     7    234.7     9.6    999.0   0.00  
  61   11:30  232.0    48   88.0     7    233.1    10.8    999.0   0.00  
  61   11:40  244.0    48   84.7     8    228.5    12.5    999.0   0.00  
  61   11:50  103.0    47   88.7    13    229.6    17.3    999.0   0.01  
  61   12:00  217.0    46   92.2    11    229.6    16.1    999.0   0.01  
  61   12:10  629.0    48   92.1     9    225.9    13.7    999.0   0.00  
  61   12:20  669.0    49   89.5    11    224.0    20.3    999.0   0.00  
  61   12:30  683.0    49   89.5    10    217.9    17.9    999.0   0.00  
  61   12:40  626.0    50   90.2    10    210.3    15.5    999.0   0.00  
  61   12:50  628.0    50   89.5     9    191.2    15.5    999.0   0.00  
  61   13:00  599.0    50   87.6     8    208.4    11.3    999.0   0.00  
  61   13:10  624.0    52   85.3     8    213.6    13.1    999.0   0.00  
  61   13:20  601.0    52   81.7     8    224.5    12.5    999.0   0.00  
  61   13:30  581.0    52   79.5     7    227.0    11.3    999.0   0.00  
  61   13:40  576.0    53   78.0     8    226.7    13.1    999.0   0.00  
  61   13:50  563.0    53   76.1     7    228.6    12.5    999.0   0.00  
  61   14:00  554.0    53   74.2     9    230.9    13.1    999.0   0.00  
  61   14:10  413.0    53   74.9     8    226.6    12.5    999.0   0.00  
  61   14:20  554.0    54   75.3     9    233.4    13.1    999.0   0.00  
  61   14:30  546.0    54   75.2    11    227.9    15.5    999.0   0.00  
  61   14:40  522.0    53   76.1    12    230.3    17.3    999.0   0.00  
  61   14:50  502.0    53   74.7    12    231.1    14.9    999.0   0.00  
  61   15:00  477.0    54   73.1    11    232.6    14.9    999.0   0.00  
  61   15:10  436.0    54   74.1    10    237.1    13.7    999.0   0.00  
  61   15:20  398.0    53   75.3    11    229.4    15.5    999.0   0.00  
  61   15:30  385.0    53   75.8    10    233.3    16.1    999.0   0.00  
  61   15:40  143.0    52   76.9    12    242.4    16.1    999.0   0.00  
  61   15:50  139.0    50   82.6    12    232.9    16.1    999.0   0.00  
  61   16:00  214.0    51   82.1    11    234.4    13.7    999.0   0.00  
  61   16:10  145.0    50   82.9    11    232.1    15.5    999.0   0.00  
  61   16:20   84.0    50   86.1    11    234.3    14.9    999.0   0.00  
  61   16:30  185.0    50   86.6    11    234.8    16.1    999.0   0.00  
  61   16:40  222.0    51   79.3    10    229.7    14.3    999.0   0.00  
  61   16:50  164.0    51   78.1     9    224.9    13.1    999.0   0.00  
  61   17:00  120.0    52   77.7     6    221.2    10.2    999.0   0.00  
  61   17:10   69.0    51   78.7     6    225.7    10.2    999.0   0.00  
  61   17:20   31.0    49   81.5     8    231.4    11.9    999.0   0.00  
  61   17:30   21.0    49   83.2     8    225.2    11.3    999.0   0.00  
  61   17:40   13.0    48   84.4     9    228.7    10.8    999.0   0.00  
  61   17:50    6.0    48   85.5     9    230.3    10.8    999.0   0.00  
  61   18:00    1.0    48   86.4     9    232.2    11.3    999.0   0.00  
  61   18:10    0.0    48   87.1     8    228.1    10.8    999.0   0.00  
  61   18:20    0.0    48   87.5     6    226.8     7.8    999.0   0.00  
  61   18:30    0.0    48   88.0     5    224.9     7.2    999.0   0.00  
  61   18:40    0.0    48   88.2     4    223.5     7.2    999.0   0.00  
  61   18:50    0.0    47   88.8     3    185.2     6.0    999.0   0.00  
  61   19:00    0.0    47   89.5     5    177.5     7.8    999.0   0.00  
  61   19:10    0.0    47   89.5     5    145.8     7.8    999.0   0.00  
  61   19:20    0.0    47   89.7     6    132.6     8.4    999.0   0.00  
  61   19:30    0.0    47   90.2     5    136.6     8.4    999.0   0.00  
  61   19:40    0.0    47   90.3     6    121.4     7.2    999.0   0.00  
  61   19:50    0.0    47   90.4     6    124.6     7.8    999.0   0.00  
  61   20:00    0.0    47   89.8     6    129.4     8.4    999.0   0.00  
  61   20:10    0.0    47   88.8     7    133.5     9.0    999.0   0.00  
  61   20:20    0.0    48   87.6     8    135.3     9.6    999.0   0.00  
  61   20:30    0.0    48   87.0     8    132.4    10.2    999.0   0.00  
  61   20:40    0.0    48   86.6     8    129.6    10.2    999.0   0.00  
  61   20:50    0.0    48   86.5     6    133.2     9.6    999.0   0.00  
  61   21:00    0.0    48   87.2     6    123.6     8.4    999.0   0.00  
  61   21:10    0.0    48   88.7     6    124.4     9.0    999.0   0.00  
  61   21:20    0.0    48   90.2     6    128.2     9.0    999.0   0.00  
  61   21:30    0.0    47   90.6     6    123.8     9.0    999.0   0.00  
  61   21:40    0.0    47   90.1     7    136.6     9.0    999.0   0.00  
  61   21:50    0.0    47   89.0     7    131.1     9.6    999.0   0.00  
  61   22:00    0.0    48   88.3     7    128.2    10.2    999.0   0.00  
  61   22:10    0.0    48   88.6     7    130.8     9.0    999.0   0.00  
  61   22:20    0.0    48   88.7     7    131.2     9.6    999.0   0.00  
  61   22:30    0.0    48   89.3     7    130.5     9.0    999.0   0.00  
  61   22:40    0.0    48   89.0     7    129.8     9.0    999.0   0.00  
  61   22:50    0.0    48   88.3     6    127.4     9.0    999.0   0.00  
  61   23:00    0.0    48   88.3     5    131.4     7.2    999.0   0.00  
  61   23:10    0.0    48   88.4     5    122.7     7.2    999.0   0.00  
  61   23:20    0.0    48   89.0     6    116.1     7.8    999.0   0.00  
  61   23:30    0.0    48   88.7     6    120.8     8.4    999.0   0.00  
  61   23:40    0.0    48   88.0     6    110.7     9.6    999.0   0.00  
  61   23:50    0.0    48   87.4     6    116.8     9.0    999.0   0.00  
  62    0:00    0.0    48   87.1     6    116.1     9.6    999.0   0.00  
  62    0:10    0.0    48   88.5     5    118.4     7.8    999.0   0.00  
  62    0:20    0.0    48   89.7     5    127.2     7.8    999.0   0.00  
  62    0:30    0.0    48   89.7     5    124.7     7.8    999.0   0.00  
  62    0:40    0.0    47   89.2     5    120.3     7.2    999.0   0.00  
  62    0:50    0.0    47   88.6     4    125.2     7.2    999.0   0.00  
  62    1:00    0.0    48   88.2     5    116.0     7.8    999.0   0.00  
  62    1:10    0.0    48   88.2     5    112.3     7.8    999.0   0.00  
  62    1:20    0.0    48   88.7     6     99.4    10.2    999.0   0.00  
  62    1:30    0.0    48   89.6     6    105.6     9.0    999.0   0.00  
  62    1:40    0.0    48   89.8     9     99.9    13.7    999.0   0.00  
  62    1:50    0.0    48   89.8     9     96.5    13.7    999.0   0.00  
  62    2:00    0.0    49   91.4     8    105.7    14.3    999.0   0.00  
  62    2:10    0.0    49   92.5     8    107.8    13.1    999.0   0.00  
  62    2:20    0.0    49   93.3    13    101.5    20.3    999.0   0.00  
  62    2:30    0.0    48   93.5    11    104.9    16.7    999.0   0.00  
  62    2:40    0.0    48   93.2    10    100.8    14.9    999.0   0.00  
  62    2:50    0.0    48   93.3     8     92.2    11.9    999.0   0.00  
  62    3:00    0.0    47   93.0    10     92.9    13.1    999.0   0.00  
  62    3:10    0.0    47   91.0    10     97.3    12.5    999.0   0.00  
  62    3:20    0.0    47   88.9    10     97.5    13.1    999.0   0.00  
  62    3:30    0.0    47   86.7     9     90.8    10.8    999.0   0.00  
  62    3:40    0.0    47   86.3     9     96.5    10.8    999.0   0.00  
  62    3:50    0.0    46   87.0     6    105.2    10.2    999.0   0.00  
  62    4:00    0.0    46   85.8     6     99.8     9.0    999.0   0.00  
  62    4:10    0.0    48   82.1     7     84.8     9.0    999.0   0.00  
  62    4:20    0.0    48   80.5     7     84.6     9.6    999.0   0.00  
  62    4:30    0.0    48   81.9     8     86.7    10.2    999.0   0.00  

Return to Dakin Peak graphs page.


Western Regional Climate Center,wrcc@dri.edu